createdAt,value
2022-10-02T00:00:11.026Z,965.61
2022-10-02T00:01:10.987Z,965.64
2022-10-02T00:02:10.959Z,965.68
2022-10-02T00:03:10.967Z,965.71
2022-10-02T00:04:11.157Z,965.75
2022-10-02T00:05:11.071Z,965.81
2022-10-02T00:06:10.953Z,965.82
2022-10-02T00:07:11.110Z,965.88
2022-10-02T00:08:11.069Z,965.89
2022-10-02T00:10:11.118Z,965.91
2022-10-02T00:11:10.964Z,965.89
2022-10-02T00:12:11.051Z,965.9
2022-10-02T00:14:10.987Z,965.86
2022-10-02T00:15:10.980Z,965.87
2022-10-02T00:16:12.052Z,965.92
2022-10-02T00:17:10.978Z,965.89
2022-10-02T00:18:11.054Z,965.91
2022-10-02T00:19:11.125Z,965.92
2022-10-02T00:20:10.992Z,965.95
2022-10-02T00:21:11.056Z,965.93
2022-10-02T00:22:11.011Z,965.92
2022-10-02T00:23:10.997Z,965.94
2022-10-02T00:25:11.005Z,966
2022-10-02T00:26:11.005Z,965.99
2022-10-02T00:27:11.071Z,965.98
2022-10-02T00:28:11.150Z,966.01
2022-10-02T00:29:11.106Z,965.99
2022-10-02T00:30:11.071Z,966.04
2022-10-02T00:31:11.024Z,966.06
2022-10-02T00:33:12.043Z,966.08
2022-10-02T00:34:15.120Z,966.06
2022-10-02T00:35:11.098Z,966.07
2022-10-02T00:36:11.027Z,966.11
2022-10-02T00:37:11.141Z,966.1
2022-10-02T00:38:11.118Z,966.09
2022-10-02T00:39:11.083Z,966.11
2022-10-02T00:40:11.152Z,966.07
2022-10-02T00:41:11.044Z,966.08
2022-10-02T00:42:11.046Z,966.06
2022-10-02T00:43:11.181Z,966.08
2022-10-02T00:44:11.121Z,966.04
2022-10-02T00:45:11.051Z,966.05
2022-10-02T00:46:11.217Z,966.03
2022-10-02T00:47:11.122Z,966.04
2022-10-02T00:48:11.221Z,966.07
2022-10-02T00:49:11.267Z,966.06
2022-10-02T00:50:11.126Z,966.05
2022-10-02T00:51:11.066Z,966.06
2022-10-02T00:52:11.175Z,966.05
2022-10-02T00:53:11.132Z,966.04
2022-10-02T00:54:11.103Z,966.08
2022-10-02T00:55:11.176Z,966.1
2022-10-02T00:56:11.140Z,966.12
2022-10-02T00:57:11.094Z,966.13
2022-10-02T00:58:11.084Z,966.11
2022-10-02T00:59:12.161Z,966.13
2022-10-02T01:00:11.218Z,966.15
2022-10-02T01:01:11.114Z,966.17
2022-10-02T01:03:11.230Z,966.19
2022-10-02T01:04:11.101Z,966.23
2022-10-02T01:06:11.116Z,966.29
2022-10-02T01:07:11.110Z,966.3
2022-10-02T01:08:11.163Z,966.27
2022-10-02T01:10:11.203Z,966.26
2022-10-02T01:11:11.117Z,966.28
2022-10-02T01:12:11.118Z,966.23
2022-10-02T01:13:11.129Z,966.27
2022-10-02T01:14:11.277Z,966.26
2022-10-02T01:15:11.250Z,966.24
2022-10-02T01:16:11.239Z,966.23
2022-10-02T01:17:11.269Z,966.19
2022-10-02T01:18:11.143Z,966.14
2022-10-02T01:19:11.140Z,966.12
2022-10-02T01:20:11.146Z,966.07
2022-10-02T01:21:11.151Z,966.09
2022-10-02T01:22:11.215Z,966.13
2022-10-02T01:23:11.232Z,966.11
2022-10-02T01:24:11.156Z,966.14
2022-10-02T01:25:11.144Z,966.19
2022-10-02T01:27:11.254Z,966.22
2022-10-02T01:28:11.283Z,966.29
2022-10-02T01:29:11.298Z,966.28
2022-10-02T01:31:11.271Z,966.32
2022-10-02T01:32:11.299Z,966.3
2022-10-02T01:33:11.263Z,966.29
2022-10-02T01:34:11.235Z,966.26
2022-10-02T01:36:11.276Z,966.29
2022-10-02T01:37:11.183Z,966.27
2022-10-02T01:38:11.204Z,966.24
2022-10-02T01:39:11.272Z,966.22
2022-10-02T01:40:11.350Z,966.24
2022-10-02T01:41:11.326Z,966.25
2022-10-02T01:42:11.200Z,966.24
2022-10-02T01:43:11.348Z,966.26
2022-10-02T01:44:11.322Z,966.28
2022-10-02T01:45:11.284Z,966.25
2022-10-02T01:46:11.287Z,966.28
2022-10-02T01:47:11.317Z,966.24
2022-10-02T01:49:11.209Z,966.23
2022-10-02T01:51:11.328Z,966.25
2022-10-02T01:52:11.355Z,966.28
2022-10-02T01:53:11.323Z,966.26
2022-10-02T01:54:11.298Z,966.28
2022-10-02T01:55:11.364Z,966.24
2022-10-02T01:56:11.327Z,966.29
2022-10-02T01:57:11.311Z,966.27
2022-10-02T01:58:11.240Z,966.28
2022-10-02T02:00:11.303Z,966.27
2022-10-02T02:01:11.314Z,966.28
2022-10-02T02:02:11.411Z,966.3
2022-10-02T02:03:11.304Z,966.29
2022-10-02T02:04:13.024Z,966.3
2022-10-02T02:05:11.341Z,966.29
2022-10-02T02:06:11.418Z,966.3
2022-10-02T02:08:11.353Z,966.28
2022-10-02T02:09:11.414Z,966.29
2022-10-02T02:10:11.260Z,966.28
2022-10-02T02:12:11.438Z,966.26
2022-10-02T02:13:11.386Z,966.24
2022-10-02T02:14:11.361Z,966.18
2022-10-02T02:15:11.432Z,966.17
2022-10-02T02:16:11.522Z,966.23
2022-10-02T02:17:11.364Z,966.19
2022-10-02T02:18:12.626Z,966.2
2022-10-02T02:20:11.366Z,966.18
2022-10-02T02:21:11.285Z,966.2
2022-10-02T02:22:11.401Z,966.17
2022-10-02T02:23:11.370Z,966.16
2022-10-02T02:24:11.288Z,966.12
2022-10-02T02:25:11.401Z,966.14
2022-10-02T02:26:11.373Z,966.15
2022-10-02T02:27:12.669Z,966.14
2022-10-02T02:28:11.466Z,966.17
2022-10-02T02:29:11.296Z,966.1
2022-10-02T02:30:11.319Z,966.12
2022-10-02T02:31:11.347Z,966.05
2022-10-02T02:32:11.384Z,966.06
2022-10-02T02:33:11.449Z,966.05
2022-10-02T02:34:11.315Z,966.03
2022-10-02T02:35:11.389Z,965.97
2022-10-02T02:37:11.331Z,965.94
2022-10-02T02:38:11.389Z,965.92
2022-10-02T02:39:11.402Z,965.96
2022-10-02T02:40:11.419Z,965.95
2022-10-02T02:41:11.330Z,965.94
2022-10-02T02:42:15.593Z,965.97
2022-10-02T02:43:11.428Z,965.95
2022-10-02T02:44:11.505Z,965.96
2022-10-02T02:45:11.358Z,965.97
2022-10-02T02:46:11.465Z,965.93
2022-10-02T02:47:11.502Z,965.92
2022-10-02T02:48:11.363Z,965.93
2022-10-02T02:50:11.357Z,965.94
2022-10-02T02:51:11.472Z,965.9
2022-10-02T02:52:11.358Z,965.91
2022-10-02T02:53:11.432Z,965.95
2022-10-02T02:54:11.479Z,965.97
2022-10-02T02:55:11.385Z,965.98
2022-10-02T02:56:11.376Z,966.02
2022-10-02T02:57:11.477Z,966.01
2022-10-02T02:58:11.452Z,965.97
2022-10-02T02:59:11.388Z,966.01
2022-10-02T03:01:11.480Z,966.02
2022-10-02T03:02:11.575Z,966.06
2022-10-02T03:03:11.489Z,966.05
2022-10-02T03:04:11.457Z,966.06
2022-10-02T03:05:12.388Z,966.04
2022-10-02T03:06:11.398Z,966.08
2022-10-02T03:07:11.561Z,966.03
2022-10-02T03:08:11.539Z,966.04
2022-10-02T03:09:11.497Z,966.02
2022-10-02T03:10:11.470Z,966.05
2022-10-02T03:11:12.425Z,966.07
2022-10-02T03:12:11.499Z,966.06
2022-10-02T03:13:11.423Z,966.05
2022-10-02T03:14:11.423Z,966.02
2022-10-02T03:15:11.515Z,966.03
2022-10-02T03:16:11.533Z,966.05
2022-10-02T03:17:11.430Z,966.01
2022-10-02T03:18:11.505Z,966.02
2022-10-02T03:20:11.556Z,966
2022-10-02T03:21:11.518Z,966.01
2022-10-02T03:22:11.591Z,965.97
2022-10-02T03:23:11.435Z,965.93
2022-10-02T03:24:11.523Z,965.97
2022-10-02T03:25:12.506Z,965.91
2022-10-02T03:26:11.559Z,965.97
2022-10-02T03:27:11.536Z,965.91
2022-10-02T03:28:11.628Z,965.88
2022-10-02T03:29:11.620Z,965.95
2022-10-02T03:30:11.541Z,965.93
2022-10-02T03:32:11.560Z,965.89
2022-10-02T03:33:11.525Z,965.87
2022-10-02T03:34:11.597Z,965.94
2022-10-02T03:35:11.586Z,965.89
2022-10-02T03:36:11.540Z,965.87
2022-10-02T03:38:11.580Z,965.88
2022-10-02T03:39:25.016Z,965.86
2022-10-02T03:41:11.584Z,965.87
2022-10-02T03:42:11.545Z,965.85
2022-10-02T03:43:11.632Z,965.84
2022-10-02T03:44:11.584Z,965.83
2022-10-02T03:45:23.192Z,965.87
2022-10-02T03:46:11.736Z,965.84
2022-10-02T03:47:11.504Z,965.86
2022-10-02T03:48:11.547Z,965.82
2022-10-02T03:49:11.520Z,965.83
2022-10-02T03:50:11.496Z,965.84
2022-10-02T03:51:12.979Z,965.86
2022-10-02T03:52:11.623Z,965.87
2022-10-02T03:53:11.592Z,965.89
2022-10-02T03:54:11.666Z,965.88
2022-10-02T03:55:11.636Z,965.85
2022-10-02T03:56:11.510Z,965.88
2022-10-02T03:57:11.673Z,965.85
2022-10-02T03:58:11.643Z,965.91
2022-10-02T03:59:11.611Z,965.85
2022-10-02T04:00:12.720Z,965.87
2022-10-02T04:01:11.689Z,965.88
2022-10-02T04:02:11.614Z,965.89
2022-10-02T04:03:11.682Z,965.88
2022-10-02T04:04:11.542Z,965.91
2022-10-02T04:05:11.601Z,965.96
2022-10-02T04:06:11.670Z,965.94
2022-10-02T04:07:11.638Z,965.86
2022-10-02T04:08:11.616Z,965.89
2022-10-02T04:09:11.678Z,965.88
2022-10-02T04:11:11.616Z,965.94
2022-10-02T04:12:11.693Z,965.92
2022-10-02T04:13:11.665Z,965.93
2022-10-02T04:14:11.725Z,965.9
2022-10-02T04:15:11.685Z,965.96
2022-10-02T04:16:11.685Z,965.95
2022-10-02T04:17:11.580Z,965.92
2022-10-02T04:18:11.700Z,965.96
2022-10-02T04:19:11.666Z,965.93
2022-10-02T04:20:11.578Z,965.95
2022-10-02T04:21:11.705Z,965.94
2022-10-02T04:22:11.672Z,965.97
2022-10-02T04:23:11.739Z,965.94
2022-10-02T04:24:11.591Z,965.93
2022-10-02T04:27:11.711Z,965.91
2022-10-02T04:28:11.717Z,965.95
2022-10-02T04:29:11.743Z,965.91
2022-10-02T04:30:11.711Z,965.9
2022-10-02T04:31:11.712Z,965.89
2022-10-02T04:32:11.643Z,965.88
2022-10-02T04:33:11.712Z,965.87
2022-10-02T04:34:11.610Z,965.86
2022-10-02T04:35:11.765Z,965.83
2022-10-02T04:37:11.687Z,965.85
2022-10-02T04:38:12.938Z,965.83
2022-10-02T04:39:11.727Z,965.82
2022-10-02T04:40:11.641Z,965.83
2022-10-02T04:41:13.091Z,965.86
2022-10-02T04:42:11.727Z,965.83
2022-10-02T04:43:11.699Z,965.82
2022-10-02T04:44:11.628Z,965.8
2022-10-02T04:45:11.729Z,965.78
2022-10-02T04:47:11.659Z,965.74
2022-10-02T04:49:11.649Z,965.71
2022-10-02T04:50:11.658Z,965.73
2022-10-02T04:51:11.755Z,965.75
2022-10-02T04:52:11.646Z,965.68
2022-10-02T04:53:11.784Z,965.71
2022-10-02T04:54:11.736Z,965.72
2022-10-02T04:56:11.665Z,965.73
2022-10-02T04:57:11.750Z,965.7
2022-10-02T04:58:11.675Z,965.74
2022-10-02T04:59:11.673Z,965.73
2022-10-02T05:00:11.758Z,965.77
2022-10-02T05:01:11.718Z,965.75
2022-10-02T05:02:11.831Z,965.71
2022-10-02T05:05:11.897Z,965.73
2022-10-02T05:07:11.845Z,965.71
2022-10-02T05:09:11.698Z,965.68
2022-10-02T05:10:11.824Z,965.71
2022-10-02T05:11:11.802Z,965.72
2022-10-02T05:12:11.773Z,965.67
2022-10-02T05:13:11.833Z,965.73
2022-10-02T05:14:11.812Z,965.68
2022-10-02T05:15:11.771Z,965.72
2022-10-02T05:16:11.744Z,965.7
2022-10-02T05:17:11.714Z,965.74
2022-10-02T05:18:14.646Z,965.75
2022-10-02T05:20:11.928Z,965.79
2022-10-02T05:22:11.731Z,965.77
2022-10-02T05:23:11.823Z,965.78
2022-10-02T05:25:11.744Z,965.79
2022-10-02T05:26:14.314Z,965.8
2022-10-02T05:27:12.230Z,965.78
2022-10-02T05:28:11.805Z,965.8
2022-10-02T05:29:11.832Z,965.78
2022-10-02T05:30:11.754Z,965.79
2022-10-02T05:31:11.922Z,965.81
2022-10-02T05:32:11.836Z,965.77
2022-10-02T05:33:11.838Z,965.75
2022-10-02T05:34:11.771Z,965.8
2022-10-02T05:35:11.767Z,965.75
2022-10-02T05:36:11.906Z,965.74
2022-10-02T05:37:11.861Z,965.75
2022-10-02T05:38:11.837Z,965.73
2022-10-02T05:39:11.767Z,965.68
2022-10-02T05:40:11.865Z,965.73
2022-10-02T05:41:11.773Z,965.71
2022-10-02T05:42:11.910Z,965.73
2022-10-02T05:44:11.851Z,965.74
2022-10-02T05:45:11.834Z,965.73
2022-10-02T05:46:11.782Z,965.77
2022-10-02T05:47:11.847Z,965.78
2022-10-02T05:48:11.791Z,965.76
2022-10-02T05:51:11.817Z,965.71
2022-10-02T05:53:12.855Z,965.72
2022-10-02T05:54:11.923Z,965.69
2022-10-02T05:56:11.856Z,965.65
2022-10-02T05:57:11.820Z,965.67
2022-10-02T05:58:11.893Z,965.69
2022-10-02T05:59:11.815Z,965.65
2022-10-02T06:01:11.868Z,965.62
2022-10-02T06:03:11.936Z,965.65
2022-10-02T06:06:11.938Z,965.63
2022-10-02T06:08:12.934Z,965.65
2022-10-02T06:09:13.642Z,965.66
2022-10-02T06:10:11.919Z,965.61
2022-10-02T06:11:12.939Z,965.63
2022-10-02T06:12:11.952Z,965.65
2022-10-02T06:13:11.917Z,965.68
2022-10-02T06:14:11.887Z,965.69
2022-10-02T06:16:11.899Z,965.66
2022-10-02T06:17:11.999Z,965.71
2022-10-02T06:18:11.972Z,965.68
2022-10-02T06:19:11.927Z,965.72
2022-10-02T06:20:13.030Z,965.66
2022-10-02T06:21:11.957Z,965.64
2022-10-02T06:22:11.872Z,965.68
2022-10-02T06:23:11.871Z,965.69
2022-10-02T06:24:11.871Z,965.65
2022-10-02T06:25:13.031Z,965.69
2022-10-02T06:26:12.003Z,965.61
2022-10-02T06:27:11.972Z,965.67
2022-10-02T06:30:11.973Z,965.64
2022-10-02T06:31:11.942Z,965.65
2022-10-02T06:32:12.027Z,965.66
2022-10-02T06:35:12.024Z,965.65
2022-10-02T06:36:11.989Z,965.67
2022-10-02T06:38:12.019Z,965.68
2022-10-02T06:39:11.994Z,965.65
2022-10-02T06:40:12.004Z,965.66
2022-10-02T06:41:12.030Z,965.62
2022-10-02T06:42:11.995Z,965.64
2022-10-02T06:43:12.060Z,965.63
2022-10-02T06:45:12.004Z,965.64
2022-10-02T06:46:12.098Z,965.67
2022-10-02T06:47:11.945Z,965.7
2022-10-02T06:48:12.001Z,965.69
2022-10-02T06:50:12.034Z,965.7
2022-10-02T06:51:11.959Z,965.72
2022-10-02T06:52:11.973Z,965.75
2022-10-02T06:53:11.952Z,965.74
2022-10-02T06:54:12.138Z,965.7
2022-10-02T06:55:13.208Z,965.73
2022-10-02T06:56:11.950Z,965.74
2022-10-02T06:58:12.086Z,965.72
2022-10-02T07:02:12.094Z,965.73
2022-10-02T07:03:12.018Z,965.74
2022-10-02T07:04:12.090Z,965.73
2022-10-02T07:05:12.056Z,965.78
2022-10-02T07:06:12.021Z,965.74
2022-10-02T07:07:12.093Z,965.78
2022-10-02T07:08:12.066Z,965.74
2022-10-02T07:09:12.139Z,965.81
2022-10-02T07:10:12.096Z,965.76
2022-10-02T07:11:11.985Z,965.81
2022-10-02T07:12:12.141Z,965.78
2022-10-02T07:15:12.006Z,965.77
2022-10-02T07:16:12.141Z,965.8
2022-10-02T07:17:12.069Z,965.79
2022-10-02T07:18:12.141Z,965.76
2022-10-02T07:19:12.155Z,965.72
2022-10-02T07:20:12.085Z,965.7
2022-10-02T07:21:12.048Z,965.69
2022-10-02T07:22:32.669Z,965.71
2022-10-02T07:23:12.248Z,965.7
2022-10-02T07:24:12.157Z,965.68
2022-10-02T07:25:12.111Z,965.71
2022-10-02T07:26:13.390Z,965.72
2022-10-02T07:27:13.398Z,965.73
2022-10-02T07:29:12.192Z,965.71
2022-10-02T07:30:12.047Z,965.74
2022-10-02T07:31:12.176Z,965.7
2022-10-02T07:32:13.425Z,965.73
2022-10-02T07:33:12.176Z,965.71
2022-10-02T07:34:12.052Z,965.7
2022-10-02T07:35:12.097Z,965.76
2022-10-02T07:36:12.062Z,965.75
2022-10-02T07:37:12.134Z,965.77
2022-10-02T07:38:12.068Z,965.76
2022-10-02T07:39:12.060Z,965.77
2022-10-02T07:40:12.063Z,965.78
2022-10-02T07:42:12.177Z,965.79
2022-10-02T07:44:12.216Z,965.76
2022-10-02T07:45:12.185Z,965.8
2022-10-02T07:46:12.184Z,965.77
2022-10-02T07:47:12.071Z,965.73
2022-10-02T07:48:12.191Z,965.72
2022-10-02T07:51:12.092Z,965.67
2022-10-02T07:52:12.155Z,965.64
2022-10-02T07:53:12.089Z,965.66
2022-10-02T07:55:12.101Z,965.67
2022-10-02T07:56:13.070Z,965.68
2022-10-02T07:57:12.195Z,965.65
2022-10-02T07:58:12.099Z,965.69
2022-10-02T07:59:12.105Z,965.67
2022-10-02T08:00:12.205Z,965.66
2022-10-02T08:01:12.115Z,965.7
2022-10-02T08:02:12.308Z,965.68
2022-10-02T08:04:12.177Z,965.67
2022-10-02T08:05:12.130Z,965.69
2022-10-02T08:06:12.199Z,965.72
2022-10-02T08:07:12.284Z,965.7
2022-10-02T08:08:12.251Z,965.69
2022-10-02T08:09:12.224Z,965.71
2022-10-02T08:12:12.222Z,965.66
2022-10-02T08:14:12.289Z,965.67
2022-10-02T08:15:12.222Z,965.68
2022-10-02T08:16:12.299Z,965.64
2022-10-02T08:17:12.267Z,965.58
2022-10-02T08:18:30.415Z,965.6
2022-10-02T08:19:12.300Z,965.65
2022-10-02T08:20:12.266Z,965.63
2022-10-02T08:21:12.332Z,965.6
2022-10-02T08:22:13.209Z,965.57
2022-10-02T08:23:12.271Z,965.48
2022-10-02T08:24:12.336Z,965.68
2022-10-02T08:25:12.169Z,965.67
2022-10-02T08:26:12.275Z,965.69
2022-10-02T08:27:12.446Z,965.67
2022-10-02T08:28:12.283Z,965.66
2022-10-02T08:29:12.297Z,965.68
2022-10-02T08:30:13.254Z,965.65
2022-10-02T08:32:12.299Z,965.6
2022-10-02T08:33:12.355Z,965.56
2022-10-02T08:34:12.204Z,965.58
2022-10-02T08:35:12.290Z,965.63
2022-10-02T08:36:12.240Z,965.61
2022-10-02T08:37:12.201Z,965.64
2022-10-02T08:38:12.291Z,965.59
2022-10-02T08:39:12.201Z,965.6
2022-10-02T08:40:12.321Z,965.59
2022-10-02T08:41:12.296Z,965.58
2022-10-02T08:42:12.199Z,965.59
2022-10-02T08:43:12.332Z,965.56
2022-10-02T08:44:12.221Z,965.54
2022-10-02T08:46:12.369Z,965.55
2022-10-02T08:47:12.297Z,965.51
2022-10-02T08:48:12.228Z,965.49
2022-10-02T08:49:12.227Z,965.51
2022-10-02T08:50:12.229Z,965.53
2022-10-02T08:51:12.385Z,965.48
2022-10-02T08:52:12.346Z,965.51
2022-10-02T08:53:12.310Z,965.5
2022-10-02T08:54:12.239Z,965.53
2022-10-02T08:55:12.348Z,965.52
2022-10-02T08:56:14.413Z,965.53
2022-10-02T08:57:12.375Z,965.56
2022-10-02T08:58:12.263Z,965.52
2022-10-02T08:59:13.403Z,965.54
2022-10-02T09:00:12.384Z,965.53
2022-10-02T09:02:12.374Z,965.55
2022-10-02T09:03:12.399Z,965.51
2022-10-02T09:04:12.267Z,965.5
2022-10-02T09:05:12.324Z,965.48
2022-10-02T09:06:12.287Z,965.49
2022-10-02T09:07:12.362Z,965.45
2022-10-02T09:08:12.429Z,965.46
2022-10-02T09:09:12.283Z,965.44
2022-10-02T09:10:12.364Z,965.43
2022-10-02T09:11:12.377Z,965.44
2022-10-02T09:12:12.288Z,965.47
2022-10-02T09:13:12.374Z,965.48
2022-10-02T09:14:12.435Z,965.44
2022-10-02T09:15:12.288Z,965.49
2022-10-02T09:16:12.368Z,965.47
2022-10-02T09:17:12.296Z,965.44
2022-10-02T09:18:12.408Z,965.48
2022-10-02T09:19:12.379Z,965.47
2022-10-02T09:20:12.312Z,965.43
2022-10-02T09:22:12.378Z,965.45
2022-10-02T09:23:12.329Z,965.41
2022-10-02T09:25:12.320Z,965.44
2022-10-02T09:26:14.075Z,965.4
2022-10-02T09:27:12.326Z,965.37
2022-10-02T09:28:12.395Z,965.4
2022-10-02T09:29:12.472Z,965.41
2022-10-02T09:30:12.418Z,965.4
2022-10-02T09:31:12.424Z,965.41
2022-10-02T09:32:12.342Z,965.39
2022-10-02T09:33:15.825Z,965.41
2022-10-02T09:34:12.448Z,965.38
2022-10-02T09:35:12.356Z,965.37
2022-10-02T09:36:12.436Z,965.44
2022-10-02T09:37:12.358Z,965.39
2022-10-02T09:39:12.436Z,965.41
2022-10-02T09:40:12.363Z,965.43
2022-10-02T09:41:12.353Z,965.38
2022-10-02T09:42:12.361Z,965.36
2022-10-02T09:43:12.375Z,965.29
2022-10-02T09:44:12.481Z,965.31
2022-10-02T09:45:12.446Z,965.29
2022-10-02T09:46:14.246Z,965.21
2022-10-02T09:47:12.380Z,965.22
2022-10-02T09:48:12.452Z,965.17
2022-10-02T09:49:12.517Z,965.18
2022-10-02T09:50:12.377Z,965.19
2022-10-02T09:52:13.734Z,965.2
2022-10-02T09:53:12.493Z,965.16
2022-10-02T09:54:12.460Z,965.12
2022-10-02T09:55:13.756Z,965.15
2022-10-02T09:56:12.497Z,965.18
2022-10-02T09:57:12.463Z,965.17
2022-10-02T09:58:12.533Z,965.14
2022-10-02T09:59:12.525Z,965.11
2022-10-02T10:00:12.475Z,965.09
2022-10-02T10:01:12.588Z,965.16
2022-10-02T10:02:12.498Z,965.14
2022-10-02T10:03:12.465Z,965.15
2022-10-02T10:05:12.639Z,965.16
2022-10-02T10:06:13.821Z,965.18
2022-10-02T10:07:13.945Z,965.2
2022-10-02T10:08:12.647Z,965.18
2022-10-02T10:09:12.587Z,965.13
2022-10-02T10:11:12.435Z,965.15
2022-10-02T10:12:12.488Z,965.13
2022-10-02T10:13:12.563Z,965.14
2022-10-02T10:14:12.529Z,965.16
2022-10-02T10:15:12.590Z,965.18
2022-10-02T10:16:12.485Z,965.14
2022-10-02T10:18:13.891Z,965.19
2022-10-02T10:19:12.556Z,965.16
2022-10-02T10:20:12.576Z,965.19
2022-10-02T10:21:12.450Z,965.15
2022-10-02T10:22:12.568Z,965.17
2022-10-02T10:24:12.546Z,965.16
2022-10-02T10:25:12.569Z,965.19
2022-10-02T10:27:13.458Z,965.23
2022-10-02T10:28:12.707Z,965.25
2022-10-02T10:29:12.554Z,965.23
2022-10-02T10:30:12.612Z,965.19
2022-10-02T10:31:12.607Z,965.23
2022-10-02T10:32:14.085Z,965.18
2022-10-02T10:35:26.672Z,965.18
2022-10-02T10:35:59.694Z,965.15
2022-10-02T10:36:59.473Z,965.18
2022-10-02T10:37:59.482Z,965.19
2022-10-02T10:38:59.504Z,965.17
2022-10-02T10:39:59.499Z,965.15
2022-10-02T10:40:59.575Z,965.09
2022-10-02T10:41:59.511Z,965.07
2022-10-02T10:43:07.694Z,965
2022-10-02T10:43:59.596Z,965.04
2022-10-02T10:44:59.489Z,965.02
2022-10-02T10:45:59.519Z,965.01
2022-10-02T10:47:59.685Z,965
2022-10-02T10:48:59.610Z,965.02
2022-10-02T10:49:59.499Z,965
2022-10-02T10:51:00.726Z,965.02
2022-10-02T10:51:59.621Z,964.99
2022-10-02T10:52:59.547Z,965.01
2022-10-02T10:54:01.983Z,965.03
2022-10-02T10:54:59.745Z,965.08
2022-10-02T10:55:59.588Z,965.06
2022-10-02T10:56:59.650Z,965.08
2022-10-02T10:57:59.512Z,965.05
2022-10-02T10:59:59.510Z,965.07
2022-10-02T11:00:59.661Z,965.11
2022-10-02T11:01:59.575Z,965.1
2022-10-02T11:02:59.661Z,965.11
2022-10-02T11:03:59.518Z,965.09
2022-10-02T11:04:59.597Z,965.1
2022-10-02T11:05:59.664Z,965.07
2022-10-02T11:06:59.541Z,965.05
2022-10-02T11:07:59.700Z,965.11
2022-10-02T11:08:59.554Z,965.09
2022-10-02T11:09:59.639Z,965.1
2022-10-02T11:11:59.560Z,965.09
2022-10-02T11:12:59.640Z,965.11
2022-10-02T11:13:59.748Z,965.03
2022-10-02T11:15:59.735Z,965.07
2022-10-02T11:16:59.558Z,965.05
2022-10-02T11:17:59.566Z,965.06
2022-10-02T11:18:59.645Z,965.05
2022-10-02T11:20:00.878Z,965.07
2022-10-02T11:20:59.690Z,965.05
2022-10-02T11:21:59.655Z,965.04
2022-10-02T11:22:59.724Z,965.02
2022-10-02T11:23:59.580Z,965
2022-10-02T11:24:59.568Z,964.99
2022-10-02T11:25:59.616Z,964.95
2022-10-02T11:26:59.592Z,964.97
2022-10-02T11:27:59.700Z,964.91
2022-10-02T11:28:59.736Z,964.89
2022-10-02T11:29:59.699Z,964.92
2022-10-02T11:30:59.692Z,964.9
2022-10-02T11:31:59.661Z,964.92
2022-10-02T11:32:59.592Z,964.95
2022-10-02T11:33:59.670Z,964.97
2022-10-02T11:34:59.643Z,964.98
2022-10-02T11:35:59.701Z,964.92
2022-10-02T11:36:59.667Z,964.95
2022-10-02T11:38:03.757Z,964.97
2022-10-02T11:39:59.615Z,964.95
2022-10-02T11:40:59.625Z,964.97
2022-10-02T11:41:59.717Z,964.99
2022-10-02T11:42:59.682Z,965.02
2022-10-02T11:43:59.634Z,964.98
2022-10-02T11:44:59.640Z,964.96
2022-10-02T11:46:01.165Z,964.93
2022-10-02T11:46:59.752Z,964.87
2022-10-02T11:47:59.731Z,964.88
2022-10-02T11:48:59.642Z,964.85
2022-10-02T11:49:59.758Z,964.87
2022-10-02T11:50:59.726Z,964.88
2022-10-02T11:51:59.790Z,964.91
2022-10-02T11:52:59.757Z,964.93
2022-10-02T11:53:59.729Z,964.94
2022-10-02T11:54:59.802Z,964.93
2022-10-02T11:55:59.650Z,964.99
2022-10-02T11:56:59.676Z,965.04
2022-10-02T11:57:59.795Z,964.92
2022-10-02T12:00:59.666Z,964.9
2022-10-02T12:01:59.788Z,964.89
2022-10-02T12:02:59.827Z,964.92
2022-10-02T12:03:59.663Z,964.89
2022-10-02T12:04:59.776Z,964.92
2022-10-02T12:05:59.745Z,964.89
2022-10-02T12:06:59.821Z,964.88
2022-10-02T12:07:59.687Z,964.84
2022-10-02T12:08:59.749Z,964.79
2022-10-02T12:10:59.693Z,964.78
2022-10-02T12:12:00.691Z,964.79
2022-10-02T12:12:59.712Z,964.73
2022-10-02T12:13:59.801Z,964.76
2022-10-02T12:14:59.706Z,964.79
2022-10-02T12:15:59.827Z,964.78
2022-10-02T12:16:59.746Z,964.76
2022-10-02T12:17:59.711Z,964.78
2022-10-02T12:18:59.732Z,964.71
2022-10-02T12:19:59.726Z,964.76
2022-10-02T12:21:00.733Z,964.77
2022-10-02T12:21:59.729Z,964.76
2022-10-02T12:22:59.806Z,964.79
2022-10-02T12:23:59.728Z,964.75
2022-10-02T12:24:59.735Z,964.76
2022-10-02T12:25:59.803Z,964.74
2022-10-02T12:26:59.887Z,964.78
2022-10-02T12:27:59.891Z,964.76
2022-10-02T12:28:59.800Z,964.73
2022-10-02T12:29:59.881Z,964.69
2022-10-02T12:30:59.841Z,964.68
2022-10-02T12:31:59.875Z,964.67
2022-10-02T12:33:59.888Z,964.66
2022-10-02T12:34:59.827Z,964.59
2022-10-02T12:35:59.765Z,964.58
2022-10-02T12:36:59.754Z,964.6
2022-10-02T12:37:59.762Z,964.57
2022-10-02T12:39:59.856Z,964.55
2022-10-02T12:40:59.800Z,964.52
2022-10-02T12:41:59.822Z,964.45
2022-10-02T12:42:59.869Z,964.41
2022-10-02T12:43:59.764Z,964.37
2022-10-02T12:44:59.774Z,964.35
2022-10-02T12:45:59.817Z,964.32
2022-10-02T12:47:00.899Z,964.25
2022-10-02T12:47:59.796Z,964.3
2022-10-02T12:48:59.777Z,964.25
2022-10-02T12:51:03.368Z,964.24
2022-10-02T12:51:59.872Z,964.22
2022-10-02T12:52:59.792Z,964.24
2022-10-02T12:53:59.795Z,964.22
2022-10-02T12:54:59.880Z,964.23
2022-10-02T12:55:59.841Z,964.21
2022-10-02T12:56:59.921Z,964.26
2022-10-02T12:57:59.816Z,964.24
2022-10-02T12:59:59.915Z,964.28
2022-10-02T13:00:59.919Z,964.25
2022-10-02T13:01:59.962Z,964.24
2022-10-02T13:03:01.492Z,964.22
2022-10-02T13:03:59.899Z,964.21
2022-10-02T13:05:59.927Z,964.15
2022-10-02T13:06:59.833Z,964.12
2022-10-02T13:08:01.026Z,964.16
2022-10-02T13:08:59.945Z,964.19
2022-10-02T13:09:59.900Z,964.22
2022-10-02T13:10:59.850Z,964.19
2022-10-02T13:11:59.940Z,964.18
2022-10-02T13:12:59.859Z,964.15
2022-10-02T13:13:59.867Z,964.1
2022-10-02T13:14:59.939Z,964.18
2022-10-02T13:15:59.848Z,964.1
2022-10-02T13:17:00.051Z,964.08
2022-10-02T13:17:59.961Z,964.1
2022-10-02T13:19:01.096Z,964.09
2022-10-02T13:19:59.871Z,964.05
2022-10-02T13:21:59.861Z,963.96
2022-10-02T13:22:59.986Z,963.93
2022-10-02T13:23:59.883Z,963.92
2022-10-02T13:25:00.016Z,963.94
2022-10-02T13:25:59.875Z,963.91
2022-10-02T13:26:59.954Z,964.01
2022-10-02T13:27:59.930Z,964.05
2022-10-02T13:28:59.988Z,964.03
2022-10-02T13:30:59.886Z,963.99
2022-10-02T13:32:59.916Z,963.96
2022-10-02T13:34:01.186Z,963.91
2022-10-02T13:35:59.991Z,963.88
2022-10-02T13:36:59.944Z,963.87
2022-10-02T13:39:00.096Z,963.82
2022-10-02T13:39:59.931Z,963.86
2022-10-02T13:41:00.011Z,963.8
2022-10-02T13:41:59.976Z,963.82
2022-10-02T13:43:00.046Z,963.8
2022-10-02T13:43:59.917Z,963.78
2022-10-02T13:44:59.926Z,963.74
2022-10-02T13:45:59.988Z,963.72
2022-10-02T13:46:59.935Z,963.73
2022-10-02T13:47:59.993Z,963.77
2022-10-02T13:48:59.975Z,963.74
2022-10-02T13:50:00.012Z,963.71
2022-10-02T13:50:59.938Z,963.67
2022-10-02T13:52:00.064Z,963.66
2022-10-02T13:53:00.030Z,963.68
2022-10-02T13:54:01.291Z,963.74
2022-10-02T13:55:00.064Z,963.66
2022-10-02T13:56:00.031Z,963.62
2022-10-02T13:57:00.219Z,963.6
2022-10-02T13:57:59.961Z,963.62
2022-10-02T13:59:00.042Z,963.63
2022-10-02T13:59:59.964Z,963.6
2022-10-02T14:00:59.993Z,963.64
2022-10-02T14:02:00.036Z,963.69
2022-10-02T14:02:59.984Z,963.71
2022-10-02T14:04:00.023Z,963.72
2022-10-02T14:05:00.046Z,963.7
2022-10-02T14:06:00.119Z,963.72
2022-10-02T14:08:00.073Z,963.75
2022-10-02T14:09:00.032Z,963.68
2022-10-02T14:09:59.997Z,963.72
2022-10-02T14:11:00.054Z,963.76
2022-10-02T14:12:00.123Z,963.7
2022-10-02T14:13:00.100Z,963.67
2022-10-02T14:14:03.324Z,963.69